sensor_id;sensor_type;location;lat;lon;timestamp;temperature;humidity
3705;DHT22;1868;48.918;9.438;2023-07-20T00:01:14;20.20;91.70
3705;DHT22;1868;48.918;9.438;2023-07-20T00:03:43;20.10;91.50
3705;DHT22;1868;48.918;9.438;2023-07-20T00:06:22;20.10;91.30
3705;DHT22;1868;48.918;9.438;2023-07-20T00:08:52;20.10;91.30
3705;DHT22;1868;48.918;9.438;2023-07-20T00:11:26;20.10;91.40
3705;DHT22;1868;48.918;9.438;2023-07-20T00:13:55;20.10;91.50
3705;DHT22;1868;48.918;9.438;2023-07-20T00:16:25;20.00;91.50
3705;DHT22;1868;48.918;9.438;2023-07-20T00:18:54;20.00;91.70
3705;DHT22;1868;48.918;9.438;2023-07-20T00:21:24;19.90;92.00
3705;DHT22;1868;48.918;9.438;2023-07-20T00:23:53;19.80;92.30
3705;DHT22;1868;48.918;9.438;2023-07-20T00:26:23;19.80;92.50
3705;DHT22;1868;48.918;9.438;2023-07-20T00:28:53;19.70;93.30
3705;DHT22;1868;48.918;9.438;2023-07-20T00:31:21;19.60;93.50
3705;DHT22;1868;48.918;9.438;2023-07-20T00:33:50;19.60;94.20
3705;DHT22;1868;48.918;9.438;2023-07-20T00:36:20;19.50;94.60
3705;DHT22;1868;48.918;9.438;2023-07-20T00:38:50;19.40;95.10
3705;DHT22;1868;48.918;9.438;2023-07-20T00:41:18;19.40;95.50
3705;DHT22;1868;48.918;9.438;2023-07-20T00:43:48;19.30;95.80
3705;DHT22;1868;48.918;9.438;2023-07-20T00:46:21;19.30;96.00
3705;DHT22;1868;48.918;9.438;2023-07-20T00:48:53;19.20;95.90
3705;DHT22;1868;48.918;9.438;2023-07-20T00:51:23;19.10;96.10
3705;DHT22;1868;48.918;9.438;2023-07-20T00:53:53;19.10;96.20
3705;DHT22;1868;48.918;9.438;2023-07-20T00:56:23;19.00;96.00
3705;DHT22;1868;48.918;9.438;2023-07-20T00:58:54;19.00;96.20
3705;DHT22;1868;48.918;9.438;2023-07-20T01:01:23;18.90;96.50
3705;DHT22;1868;48.918;9.438;2023-07-20T01:03:54;18.80;96.70
3705;DHT22;1868;48.918;9.438;2023-07-20T01:06:33;18.80;96.60
3705;DHT22;1868;48.918;9.438;2023-07-20T01:09:12;18.80;96.70
3705;DHT22;1868;48.918;9.438;2023-07-20T01:11:51;18.70;97.00
3705;DHT22;1868;48.918;9.438;2023-07-20T01:14:27;18.70;97.10
3705;DHT22;1868;48.918;9.438;2023-07-20T01:16:57;18.60;96.90
3705;DHT22;1868;48.918;9.438;2023-07-20T01:19:26;18.60;97.00
3705;DHT22;1868;48.918;9.438;2023-07-20T01:21:57;18.60;96.90
3705;DHT22;1868;48.918;9.438;2023-07-20T01:25:11;18.60;97.00
3705;DHT22;1868;48.918;9.438;2023-07-20T01:28:25;18.50;97.20
3705;DHT22;1868;48.918;9.438;2023-07-20T01:31:21;18.40;97.40
3705;DHT22;1868;48.918;9.438;2023-07-20T01:33:54;18.30;97.40
3705;DHT22;1868;48.918;9.438;2023-07-20T01:36:27;18.20;97.40
3705;DHT22;1868;48.918;9.438;2023-07-20T01:38:59;18.20;97.40
3705;DHT22;1868;48.918;9.438;2023-07-20T01:41:30;18.20;97.40
3705;DHT22;1868;48.918;9.438;2023-07-20T01:44:00;18.10;97.40
3705;DHT22;1868;48.918;9.438;2023-07-20T01:46:31;18.10;97.40
3705;DHT22;1868;48.918;9.438;2023-07-20T01:49:00;18.00;97.40
3705;DHT22;1868;48.918;9.438;2023-07-20T01:51:31;18.00;97.40
3705;DHT22;1868;48.918;9.438;2023-07-20T01:54:00;17.90;97.40
3705;DHT22;1868;48.918;9.438;2023-07-20T01:56:29;17.90;97.40
3705;DHT22;1868;48.918;9.438;2023-07-20T01:59:00;17.90;97.40
3705;DHT22;1868;48.918;9.438;2023-07-20T02:01:31;17.80;97.40
3705;DHT22;1868;48.918;9.438;2023-07-20T02:04:01;17.70;97.40
3705;DHT22;1868;48.918;9.438;2023-07-20T02:06:29;17.70;97.40
3705;DHT22;1868;48.918;9.438;2023-07-20T02:08:58;17.70;97.40
3705;DHT22;1868;48.918;9.438;2023-07-20T02:11:30;17.60;97.40
3705;DHT22;1868;48.918;9.438;2023-07-20T02:13:59;17.60;97.40
3705;DHT22;1868;48.918;9.438;2023-07-20T02:16:28;17.60;97.40
3705;DHT22;1868;48.918;9.438;2023-07-20T02:19:00;17.50;97.40
3705;DHT22;1868;48.918;9.438;2023-07-20T02:21:29;17.50;97.40
3705;DHT22;1868;48.918;9.438;2023-07-20T02:23:58;17.40;97.40
3705;DHT22;1868;48.918;9.438;2023-07-20T02:26:27;17.40;97.40
3705;DHT22;1868;48.918;9.438;2023-07-20T02:28:58;17.30;97.40
3705;DHT22;1868;48.918;9.438;2023-07-20T02:31:26;17.20;97.40
3705;DHT22;1868;48.918;9.438;2023-07-20T02:33:57;17.20;97.40
3705;DHT22;1868;48.918;9.438;2023-07-20T02:36:27;17.10;97.40
3705;DHT22;1868;48.918;9.438;2023-07-20T02:38:56;17.10;97.40
3705;DHT22;1868;48.918;9.438;2023-07-20T02:41:26;17.00;97.40
3705;DHT22;1868;48.918;9.438;2023-07-20T02:43:56;17.00;97.40
3705;DHT22;1868;48.918;9.438;2023-07-20T02:46:28;17.00;97.40
3705;DHT22;1868;48.918;9.438;2023-07-20T02:49:02;16.90;97.40
3705;DHT22;1868;48.918;9.438;2023-07-20T02:51:32;16.90;97.40
3705;DHT22;1868;48.918;9.438;2023-07-20T02:54:02;16.80;97.40
3705;DHT22;1868;48.918;9.438;2023-07-20T02:56:31;16.80;97.40
3705;DHT22;1868;48.918;9.438;2023-07-20T02:59:01;16.80;97.40
3705;DHT22;1868;48.918;9.438;2023-07-20T03:01:31;16.70;97.40
3705;DHT22;1868;48.918;9.438;2023-07-20T03:04:02;16.70;97.40
3705;DHT22;1868;48.918;9.438;2023-07-20T03:06:31;16.60;97.40
3705;DHT22;1868;48.918;9.438;2023-07-20T03:09:03;16.60;97.40
3705;DHT22;1868;48.918;9.438;2023-07-20T03:11:33;16.60;97.40
3705;DHT22;1868;48.918;9.438;2023-07-20T03:14:04;16.50;97.40
3705;DHT22;1868;48.918;9.438;2023-07-20T03:16:33;16.50;97.40
3705;DHT22;1868;48.918;9.438;2023-07-20T03:19:03;16.40;97.40
3705;DHT22;1868;48.918;9.438;2023-07-20T03:21:32;16.40;97.40
3705;DHT22;1868;48.918;9.438;2023-07-20T03:24:01;16.30;97.40
3705;DHT22;1868;48.918;9.438;2023-07-20T03:26:30;16.20;97.40
3705;DHT22;1868;48.918;9.438;2023-07-20T03:28:59;16.10;97.40
3705;DHT22;1868;48.918;9.438;2023-07-20T03:31:29;16.10;97.40
3705;DHT22;1868;48.918;9.438;2023-07-20T03:33:58;16.00;97.40
3705;DHT22;1868;48.918;9.438;2023-07-20T03:36:28;15.90;97.40
3705;DHT22;1868;48.918;9.438;2023-07-20T03:38:58;15.80;97.40
3705;DHT22;1868;48.918;9.438;2023-07-20T03:41:29;15.80;97.40
3705;DHT22;1868;48.918;9.438;2023-07-20T03:43:59;15.70;97.40
3705;DHT22;1868;48.918;9.438;2023-07-20T03:46:28;15.70;97.40
3705;DHT22;1868;48.918;9.438;2023-07-20T03:48:56;15.70;97.40
3705;DHT22;1868;48.918;9.438;2023-07-20T03:51:28;15.60;97.40
3705;DHT22;1868;48.918;9.438;2023-07-20T03:53:57;15.60;97.40
3705;DHT22;1868;48.918;9.438;2023-07-20T03:56:28;15.50;97.40
3705;DHT22;1868;48.918;9.438;2023-07-20T03:59:01;15.50;97.40
3705;DHT22;1868;48.918;9.438;2023-07-20T04:01:30;15.50;97.40
3705;DHT22;1868;48.918;9.438;2023-07-20T04:04:07;15.50;97.40
3705;DHT22;1868;48.918;9.438;2023-07-20T04:06:38;15.40;97.40
3705;DHT22;1868;48.918;9.438;2023-07-20T04:09:07;15.40;97.40
3705;DHT22;1868;48.918;9.438;2023-07-20T04:11:36;15.40;97.40
3705;DHT22;1868;48.918;9.438;2023-07-20T04:14:05;15.40;97.40
3705;DHT22;1868;48.918;9.438;2023-07-20T04:16:34;15.40;97.40
3705;DHT22;1868;48.918;9.438;2023-07-20T04:19:04;15.40;97.40
3705;DHT22;1868;48.918;9.438;2023-07-20T04:21:39;15.50;97.40
3705;DHT22;1868;48.918;9.438;2023-07-20T04:24:09;15.40;97.40
3705;DHT22;1868;48.918;9.438;2023-07-20T04:26:39;15.50;97.40
3705;DHT22;1868;48.918;9.438;2023-07-20T04:29:06;15.40;97.40
3705;DHT22;1868;48.918;9.438;2023-07-20T04:31:40;15.50;97.40
3705;DHT22;1868;48.918;9.438;2023-07-20T04:34:09;15.50;97.40
3705;DHT22;1868;48.918;9.438;2023-07-20T04:36:38;15.50;97.40
3705;DHT22;1868;48.918;9.438;2023-07-20T04:39:10;15.60;97.40
3705;DHT22;1868;48.918;9.438;2023-07-20T04:41:52;15.80;97.40
3705;DHT22;1868;48.918;9.438;2023-07-20T04:44:21;15.90;97.40
3705;DHT22;1868;48.918;9.438;2023-07-20T04:46:49;16.00;97.40
3705;DHT22;1868;48.918;9.438;2023-07-20T04:49:20;16.00;97.40
3705;DHT22;1868;48.918;9.438;2023-07-20T04:51:49;16.00;97.40
3705;DHT22;1868;48.918;9.438;2023-07-20T04:54:20;16.00;97.40
3705;DHT22;1868;48.918;9.438;2023-07-20T04:56:49;16.10;97.40
3705;DHT22;1868;48.918;9.438;2023-07-20T04:59:20;16.10;97.40
3705;DHT22;1868;48.918;9.438;2023-07-20T05:01:48;16.20;97.40
3705;DHT22;1868;48.918;9.438;2023-07-20T05:04:17;16.20;97.40
3705;DHT22;1868;48.918;9.438;2023-07-20T05:06:49;16.30;97.40
3705;DHT22;1868;48.918;9.438;2023-07-20T05:09:19;16.40;97.40
3705;DHT22;1868;48.918;9.438;2023-07-20T05:11:48;16.40;97.40
3705;DHT22;1868;48.918;9.438;2023-07-20T05:14:17;16.50;97.40
3705;DHT22;1868;48.918;9.438;2023-07-20T05:16:49;16.60;97.40
3705;DHT22;1868;48.918;9.438;2023-07-20T05:19:18;16.70;97.40
3705;DHT22;1868;48.918;9.438;2023-07-20T05:21:48;16.80;97.40
3705;DHT22;1868;48.918;9.438;2023-07-20T05:24:18;16.90;97.40
3705;DHT22;1868;48.918;9.438;2023-07-20T05:26:48;17.00;97.40
3705;DHT22;1868;48.918;9.438;2023-07-20T05:29:16;17.10;97.40
3705;DHT22;1868;48.918;9.438;2023-07-20T05:31:46;17.20;97.40
3705;DHT22;1868;48.918;9.438;2023-07-20T05:34:15;17.30;97.40
3705;DHT22;1868;48.918;9.438;2023-07-20T05:36:45;17.40;97.40
3705;DHT22;1868;48.918;9.438;2023-07-20T05:39:13;17.60;97.40
3705;DHT22;1868;48.918;9.438;2023-07-20T05:41:44;17.70;97.40
3705;DHT22;1868;48.918;9.438;2023-07-20T05:44:13;17.80;97.40
3705;DHT22;1868;48.918;9.438;2023-07-20T05:46:41;18.00;97.40
3705;DHT22;1868;48.918;9.438;2023-07-20T05:49:23;18.10;97.40
3705;DHT22;1868;48.918;9.438;2023-07-20T05:51:52;18.20;97.40
3705;DHT22;1868;48.918;9.438;2023-07-20T05:54:21;18.30;97.40
3705;DHT22;1868;48.918;9.438;2023-07-20T05:56:52;18.40;97.40
3705;DHT22;1868;48.918;9.438;2023-07-20T05:59:21;18.50;97.40
3705;DHT22;1868;48.918;9.438;2023-07-20T06:01:52;18.60;97.40
3705;DHT22;1868;48.918;9.438;2023-07-20T06:04:22;18.80;97.40
3705;DHT22;1868;48.918;9.438;2023-07-20T06:06:51;19.00;97.40
3705;DHT22;1868;48.918;9.438;2023-07-20T06:09:20;19.20;97.40
3705;DHT22;1868;48.918;9.438;2023-07-20T06:11:50;19.30;97.40
3705;DHT22;1868;48.918;9.438;2023-07-20T06:14:20;19.40;97.40
3705;DHT22;1868;48.918;9.438;2023-07-20T06:16:49;19.60;97.40
3705;DHT22;1868;48.918;9.438;2023-07-20T06:19:18;19.60;97.40
3705;DHT22;1868;48.918;9.438;2023-07-20T06:21:47;19.80;97.40
3705;DHT22;1868;48.918;9.438;2023-07-20T06:24:17;19.90;97.40
3705;DHT22;1868;48.918;9.438;2023-07-20T06:26:46;20.00;97.40
3705;DHT22;1868;48.918;9.438;2023-07-20T06:29:16;20.20;97.40
3705;DHT22;1868;48.918;9.438;2023-07-20T06:31:46;20.40;97.40
3705;DHT22;1868;48.918;9.438;2023-07-20T06:34:16;20.50;97.40
3705;DHT22;1868;48.918;9.438;2023-07-20T06:36:49;20.70;97.40
3705;DHT22;1868;48.918;9.438;2023-07-20T06:39:18;20.80;97.40
3705;DHT22;1868;48.918;9.438;2023-07-20T06:41:51;20.90;96.50
3705;DHT22;1868;48.918;9.438;2023-07-20T06:44:23;21.00;96.90
3705;DHT22;1868;48.918;9.438;2023-07-20T06:46:52;21.10;96.90
3705;DHT22;1868;48.918;9.438;2023-07-20T06:49:25;21.20;97.20
3705;DHT22;1868;48.918;9.438;2023-07-20T06:51:55;21.10;95.10
3705;DHT22;1868;48.918;9.438;2023-07-20T06:54:25;21.00;95.70
3705;DHT22;1868;48.918;9.438;2023-07-20T06:57:01;21.00;96.20
3705;DHT22;1868;48.918;9.438;2023-07-20T06:59:34;21.10;97.10
3705;DHT22;1868;48.918;9.438;2023-07-20T07:02:07;21.10;97.40
3705;DHT22;1868;48.918;9.438;2023-07-20T07:04:41;21.30;96.40
3705;DHT22;1868;48.918;9.438;2023-07-20T07:07:10;21.30;96.60
3705;DHT22;1868;48.918;9.438;2023-07-20T07:09:40;21.40;96.10
3705;DHT22;1868;48.918;9.438;2023-07-20T07:12:11;21.60;96.20
3705;DHT22;1868;48.918;9.438;2023-07-20T07:14:42;21.70;93.90
3705;DHT22;1868;48.918;9.438;2023-07-20T07:17:10;21.60;94.80
3705;DHT22;1868;48.918;9.438;2023-07-20T07:19:44;21.80;95.10
3705;DHT22;1868;48.918;9.438;2023-07-20T07:22:15;22.10;94.90
3705;DHT22;1868;48.918;9.438;2023-07-20T07:24:45;22.50;92.70
3705;DHT22;1868;48.918;9.438;2023-07-20T07:27:14;22.70;92.60
3705;DHT22;1868;48.918;9.438;2023-07-20T07:29:45;22.90;92.60
3705;DHT22;1868;48.918;9.438;2023-07-20T07:32:15;22.90;91.50
3705;DHT22;1868;48.918;9.438;2023-07-20T07:34:44;22.90;91.50
3705;DHT22;1868;48.918;9.438;2023-07-20T07:37:14;22.80;91.60
3705;DHT22;1868;48.918;9.438;2023-07-20T07:39:44;22.80;92.70
3705;DHT22;1868;48.918;9.438;2023-07-20T07:42:13;22.80;92.20
3705;DHT22;1868;48.918;9.438;2023-07-20T07:44:41;22.70;92.90
3705;DHT22;1868;48.918;9.438;2023-07-20T07:47:12;22.90;92.20
3705;DHT22;1868;48.918;9.438;2023-07-20T07:49:41;23.10;91.70
3705;DHT22;1868;48.918;9.438;2023-07-20T07:52:13;23.30;90.90
3705;DHT22;1868;48.918;9.438;2023-07-20T07:54:42;23.40;90.10
3705;DHT22;1868;48.918;9.438;2023-07-20T07:57:11;23.10;90.20
3705;DHT22;1868;48.918;9.438;2023-07-20T07:59:41;23.20;91.70
3705;DHT22;1868;48.918;9.438;2023-07-20T08:02:09;23.30;91.50
3705;DHT22;1868;48.918;9.438;2023-07-20T08:04:41;23.30;91.80
3705;DHT22;1868;48.918;9.438;2023-07-20T08:07:09;23.20;90.40
3705;DHT22;1868;48.918;9.438;2023-07-20T08:09:38;23.30;90.10
3705;DHT22;1868;48.918;9.438;2023-07-20T08:12:07;23.60;90.70
3705;DHT22;1868;48.918;9.438;2023-07-20T08:14:37;23.70;89.60
3705;DHT22;1868;48.918;9.438;2023-07-20T08:17:06;24.00;90.40
3705;DHT22;1868;48.918;9.438;2023-07-20T08:19:37;24.30;89.90
3705;DHT22;1868;48.918;9.438;2023-07-20T08:22:10;24.60;86.40
3705;DHT22;1868;48.918;9.438;2023-07-20T08:24:40;24.80;81.90
3705;DHT22;1868;48.918;9.438;2023-07-20T08:27:09;24.70;81.50
3705;DHT22;1868;48.918;9.438;2023-07-20T08:29:39;24.80;83.00
3705;DHT22;1868;48.918;9.438;2023-07-20T08:32:08;24.80;82.80
3705;DHT22;1868;48.918;9.438;2023-07-20T08:34:38;24.70;83.60
3705;DHT22;1868;48.918;9.438;2023-07-20T08:37:06;24.50;84.00
3705;DHT22;1868;48.918;9.438;2023-07-20T08:39:38;24.40;85.80
3705;DHT22;1868;48.918;9.438;2023-07-20T08:42:09;24.30;84.70
3705;DHT22;1868;48.918;9.438;2023-07-20T08:44:41;24.30;84.10
3705;DHT22;1868;48.918;9.438;2023-07-20T08:47:16;24.30;85.50
3705;DHT22;1868;48.918;9.438;2023-07-20T08:49:48;24.60;84.90
3705;DHT22;1868;48.918;9.438;2023-07-20T08:52:17;24.90;82.70
3705;DHT22;1868;48.918;9.438;2023-07-20T08:54:48;24.90;82.50
3705;DHT22;1868;48.918;9.438;2023-07-20T08:57:21;24.90;81.40
3705;DHT22;1868;48.918;9.438;2023-07-20T08:59:52;24.90;80.60
3705;DHT22;1868;48.918;9.438;2023-07-20T09:02:25;24.80;81.50
3705;DHT22;1868;48.918;9.438;2023-07-20T09:04:57;24.80;81.20
3705;DHT22;1868;48.918;9.438;2023-07-20T09:07:26;24.70;81.70
3705;DHT22;1868;48.918;9.438;2023-07-20T09:09:58;24.70;80.40
3705;DHT22;1868;48.918;9.438;2023-07-20T09:12:35;24.70;81.00
3705;DHT22;1868;48.918;9.438;2023-07-20T09:15:06;24.90;81.90
3705;DHT22;1868;48.918;9.438;2023-07-20T09:17:37;25.00;79.70
3705;DHT22;1868;48.918;9.438;2023-07-20T09:20:07;25.00;80.60
3705;DHT22;1868;48.918;9.438;2023-07-20T09:22:38;24.90;78.00
3705;DHT22;1868;48.918;9.438;2023-07-20T09:25:11;24.80;79.10
3705;DHT22;1868;48.918;9.438;2023-07-20T09:27:42;24.90;78.70
3705;DHT22;1868;48.918;9.438;2023-07-20T09:30:14;25.30;79.30
3705;DHT22;1868;48.918;9.438;2023-07-20T09:32:46;25.70;74.10
3705;DHT22;1868;48.918;9.438;2023-07-20T09:35:22;26.10;75.20
3705;DHT22;1868;48.918;9.438;2023-07-20T09:38:00;26.40;71.80
3705;DHT22;1868;48.918;9.438;2023-07-20T09:40:37;26.70;70.70
3705;DHT22;1868;48.918;9.438;2023-07-20T09:43:10;27.00;70.70
3705;DHT22;1868;48.918;9.438;2023-07-20T09:45:42;27.10;64.80
3705;DHT22;1868;48.918;9.438;2023-07-20T09:48:14;26.90;67.00
3705;DHT22;1868;48.918;9.438;2023-07-20T09:50:49;27.30;69.20
3705;DHT22;1868;48.918;9.438;2023-07-20T09:53:20;27.70;65.50
3705;DHT22;1868;48.918;9.438;2023-07-20T09:55:52;27.40;63.80
3705;DHT22;1868;48.918;9.438;2023-07-20T09:58:21;27.70;63.80
3705;DHT22;1868;48.918;9.438;2023-07-20T10:00:51;27.90;63.10
3705;DHT22;1868;48.918;9.438;2023-07-20T10:03:22;28.20;62.50
3705;DHT22;1868;48.918;9.438;2023-07-20T10:05:57;28.20;63.70
3705;DHT22;1868;48.918;9.438;2023-07-20T10:08:30;28.40;60.90
3705;DHT22;1868;48.918;9.438;2023-07-20T10:11:03;28.60;61.60
3705;DHT22;1868;48.918;9.438;2023-07-20T10:13:37;28.90;60.30
3705;DHT22;1868;48.918;9.438;2023-07-20T10:16:10;29.20;58.00
3705;DHT22;1868;48.918;9.438;2023-07-20T10:18:44;29.30;57.00
3705;DHT22;1868;48.918;9.438;2023-07-20T10:21:20;29.30;55.80
3705;DHT22;1868;48.918;9.438;2023-07-20T10:23:55;29.00;56.90
3705;DHT22;1868;48.918;9.438;2023-07-20T10:26:26;28.60;57.70
3705;DHT22;1868;48.918;9.438;2023-07-20T10:28:55;28.80;56.30
3705;DHT22;1868;48.918;9.438;2023-07-20T10:31:25;28.90;53.20
3705;DHT22;1868;48.918;9.438;2023-07-20T10:33:58;29.00;53.10
3705;DHT22;1868;48.918;9.438;2023-07-20T10:36:28;28.90;52.00
3705;DHT22;1868;48.918;9.438;2023-07-20T10:38:58;29.20;54.00
3705;DHT22;1868;48.918;9.438;2023-07-20T10:41:33;29.50;53.20
3705;DHT22;1868;48.918;9.438;2023-07-20T10:44:03;29.80;51.10
3705;DHT22;1868;48.918;9.438;2023-07-20T10:46:34;29.70;49.60
3705;DHT22;1868;48.918;9.438;2023-07-20T10:49:13;29.60;52.00
3705;DHT22;1868;48.918;9.438;2023-07-20T10:51:44;29.50;51.30
3705;DHT22;1868;48.918;9.438;2023-07-20T10:54:35;29.80;50.00
3705;DHT22;1868;48.918;9.438;2023-07-20T10:57:27;30.30;49.40
3705;DHT22;1868;48.918;9.438;2023-07-20T11:00:09;30.70;45.60
3705;DHT22;1868;48.918;9.438;2023-07-20T11:02:46;31.00;44.10
3705;DHT22;1868;48.918;9.438;2023-07-20T11:05:38;31.20;41.50
3705;DHT22;1868;48.918;9.438;2023-07-20T11:08:10;31.60;40.50
3705;DHT22;1868;48.918;9.438;2023-07-20T11:10:40;32.10;42.90
3705;DHT22;1868;48.918;9.438;2023-07-20T11:13:21;32.00;43.50
3705;DHT22;1868;48.918;9.438;2023-07-20T11:16:02;32.20;43.50
3705;DHT22;1868;48.918;9.438;2023-07-20T11:18:34;32.60;41.70
3705;DHT22;1868;48.918;9.438;2023-07-20T11:21:09;32.90;39.80
3705;DHT22;1868;48.918;9.438;2023-07-20T11:23:38;33.10;38.20
3705;DHT22;1868;48.918;9.438;2023-07-20T11:26:08;33.70;38.90
3705;DHT22;1868;48.918;9.438;2023-07-20T11:28:40;34.30;38.00
3705;DHT22;1868;48.918;9.438;2023-07-20T11:31:09;34.50;37.90
3705;DHT22;1868;48.918;9.438;2023-07-20T11:33:38;34.80;38.60
3705;DHT22;1868;48.918;9.438;2023-07-20T11:36:08;35.20;35.90
3705;DHT22;1868;48.918;9.438;2023-07-20T11:38:42;35.40;35.70
3705;DHT22;1868;48.918;9.438;2023-07-20T11:41:12;35.20;34.80
3705;DHT22;1868;48.918;9.438;2023-07-20T11:43:45;35.50;36.60
3705;DHT22;1868;48.918;9.438;2023-07-20T11:46:14;35.70;36.30
3705;DHT22;1868;48.918;9.438;2023-07-20T11:48:45;36.00;36.50
3705;DHT22;1868;48.918;9.438;2023-07-20T11:51:15;36.10;34.80
3705;DHT22;1868;48.918;9.438;2023-07-20T11:53:44;34.80;36.50
3705;DHT22;1868;48.918;9.438;2023-07-20T11:56:14;33.90;38.90
3705;DHT22;1868;48.918;9.438;2023-07-20T11:58:45;34.50;39.70
3705;DHT22;1868;48.918;9.438;2023-07-20T12:01:15;34.90;38.30
3705;DHT22;1868;48.918;9.438;2023-07-20T12:03:47;35.10;37.10
3705;DHT22;1868;48.918;9.438;2023-07-20T12:06:22;35.20;36.30
3705;DHT22;1868;48.918;9.438;2023-07-20T12:08:56;34.90;34.40
3705;DHT22;1868;48.918;9.438;2023-07-20T12:11:35;35.00;33.70
3705;DHT22;1868;48.918;9.438;2023-07-20T12:14:08;35.00;35.70
3705;DHT22;1868;48.918;9.438;2023-07-20T12:16:43;35.30;36.90
3705;DHT22;1868;48.918;9.438;2023-07-20T12:19:19;35.30;37.70
3705;DHT22;1868;48.918;9.438;2023-07-20T12:21:48;35.30;35.70
3705;DHT22;1868;48.918;9.438;2023-07-20T12:24:18;35.10;37.10
3705;DHT22;1868;48.918;9.438;2023-07-20T12:26:47;35.20;37.30
3705;DHT22;1868;48.918;9.438;2023-07-20T12:29:17;34.80;36.60
3705;DHT22;1868;48.918;9.438;2023-07-20T12:31:48;34.50;36.60
3705;DHT22;1868;48.918;9.438;2023-07-20T12:34:17;34.40;38.00
3705;DHT22;1868;48.918;9.438;2023-07-20T12:36:46;34.60;37.90
3705;DHT22;1868;48.918;9.438;2023-07-20T12:39:14;34.60;34.70
3705;DHT22;1868;48.918;9.438;2023-07-20T12:41:43;34.30;35.70
3705;DHT22;1868;48.918;9.438;2023-07-20T12:44:13;34.40;37.40
3705;DHT22;1868;48.918;9.438;2023-07-20T12:46:43;34.50;36.20
3705;DHT22;1868;48.918;9.438;2023-07-20T12:49:11;34.30;35.70
3705;DHT22;1868;48.918;9.438;2023-07-20T12:51:43;33.80;36.30
3705;DHT22;1868;48.918;9.438;2023-07-20T12:54:12;34.00;35.90
3705;DHT22;1868;48.918;9.438;2023-07-20T12:56:41;33.90;37.60
3705;DHT22;1868;48.918;9.438;2023-07-20T12:59:12;33.90;37.10
3705;DHT22;1868;48.918;9.438;2023-07-20T13:01:43;33.90;36.20
3705;DHT22;1868;48.918;9.438;2023-07-20T13:04:12;34.00;36.90
3705;DHT22;1868;48.918;9.438;2023-07-20T13:06:41;34.10;37.30
3705;DHT22;1868;48.918;9.438;2023-07-20T13:09:10;34.10;34.80
3705;DHT22;1868;48.918;9.438;2023-07-20T13:11:39;33.70;34.10
3705;DHT22;1868;48.918;9.438;2023-07-20T13:14:08;33.50;37.10
3705;DHT22;1868;48.918;9.438;2023-07-20T13:16:38;33.90;36.80
3705;DHT22;1868;48.918;9.438;2023-07-20T13:19:09;33.90;37.30
3705;DHT22;1868;48.918;9.438;2023-07-20T13:21:38;34.00;37.40
3705;DHT22;1868;48.918;9.438;2023-07-20T13:24:08;34.10;37.90
3705;DHT22;1868;48.918;9.438;2023-07-20T13:26:37;34.10;36.90
3705;DHT22;1868;48.918;9.438;2023-07-20T13:29:05;34.20;36.50
3705;DHT22;1868;48.918;9.438;2023-07-20T13:31:34;34.10;34.70
3705;DHT22;1868;48.918;9.438;2023-07-20T13:34:04;34.00;33.60
3705;DHT22;1868;48.918;9.438;2023-07-20T13:36:35;34.00;35.00
3705;DHT22;1868;48.918;9.438;2023-07-20T13:39:04;33.60;32.40
3705;DHT22;1868;48.918;9.438;2023-07-20T13:41:33;33.40;34.50
3705;DHT22;1868;48.918;9.438;2023-07-20T13:44:03;33.50;35.60
3705;DHT22;1868;48.918;9.438;2023-07-20T13:46:32;33.70;36.80
3705;DHT22;1868;48.918;9.438;2023-07-20T13:49:04;33.70;36.60
3705;DHT22;1868;48.918;9.438;2023-07-20T13:51:41;33.50;37.10
3705;DHT22;1868;48.918;9.438;2023-07-20T13:54:10;33.20;37.10
3705;DHT22;1868;48.918;9.438;2023-07-20T13:56:43;32.60;38.20
3705;DHT22;1868;48.918;9.438;2023-07-20T13:59:12;32.40;39.10
3705;DHT22;1868;48.918;9.438;2023-07-20T14:01:44;32.30;38.90
3705;DHT22;1868;48.918;9.438;2023-07-20T14:04:12;32.30;39.80
3705;DHT22;1868;48.918;9.438;2023-07-20T14:06:42;32.10;37.90
3705;DHT22;1868;48.918;9.438;2023-07-20T14:09:12;31.90;38.90
3705;DHT22;1868;48.918;9.438;2023-07-20T14:11:41;31.90;40.00
3705;DHT22;1868;48.918;9.438;2023-07-20T14:14:14;32.00;39.80
3705;DHT22;1868;48.918;9.438;2023-07-20T14:16:43;32.10;38.50
3705;DHT22;1868;48.918;9.438;2023-07-20T14:19:12;31.80;38.60
3705;DHT22;1868;48.918;9.438;2023-07-20T14:21:42;31.70;38.30
3705;DHT22;1868;48.918;9.438;2023-07-20T14:24:11;31.70;37.90
3705;DHT22;1868;48.918;9.438;2023-07-20T14:26:40;31.50;38.00
3705;DHT22;1868;48.918;9.438;2023-07-20T14:29:10;31.30;38.50
3705;DHT22;1868;48.918;9.438;2023-07-20T14:31:39;31.30;38.50
3705;DHT22;1868;48.918;9.438;2023-07-20T14:34:09;31.40;39.20
3705;DHT22;1868;48.918;9.438;2023-07-20T14:36:37;31.50;39.40
3705;DHT22;1868;48.918;9.438;2023-07-20T14:39:07;31.40;38.60
3705;DHT22;1868;48.918;9.438;2023-07-20T14:41:36;31.00;39.50
3705;DHT22;1868;48.918;9.438;2023-07-20T14:44:05;30.60;39.10
3705;DHT22;1868;48.918;9.438;2023-07-20T14:46:33;30.40;39.20
3705;DHT22;1868;48.918;9.438;2023-07-20T14:49:03;30.50;40.30
3705;DHT22;1868;48.918;9.438;2023-07-20T14:51:31;30.60;40.00
3705;DHT22;1868;48.918;9.438;2023-07-20T14:54:05;30.50;40.80
3705;DHT22;1868;48.918;9.438;2023-07-20T14:56:38;30.50;40.30
3705;DHT22;1868;48.918;9.438;2023-07-20T14:59:07;30.40;40.90
3705;DHT22;1868;48.918;9.438;2023-07-20T15:01:35;30.30;38.80
3705;DHT22;1868;48.918;9.438;2023-07-20T15:04:04;30.00;38.00
3705;DHT22;1868;48.918;9.438;2023-07-20T15:06:33;30.10;39.70
3705;DHT22;1868;48.918;9.438;2023-07-20T15:09:02;30.20;41.40
3705;DHT22;1868;48.918;9.438;2023-07-20T15:11:33;30.30;41.70
3705;DHT22;1868;48.918;9.438;2023-07-20T15:14:05;30.10;41.40
3705;DHT22;1868;48.918;9.438;2023-07-20T15:16:34;29.80;41.50
3705;DHT22;1868;48.918;9.438;2023-07-20T15:19:04;29.60;41.40
3705;DHT22;1868;48.918;9.438;2023-07-20T15:21:33;29.60;42.70
3705;DHT22;1868;48.918;9.438;2023-07-20T15:24:03;29.60;43.00
3705;DHT22;1868;48.918;9.438;2023-07-20T15:26:33;29.50;42.40
3705;DHT22;1868;48.918;9.438;2023-07-20T15:29:02;29.40;43.20
3705;DHT22;1868;48.918;9.438;2023-07-20T15:31:31;29.40;43.20
3705;DHT22;1868;48.918;9.438;2023-07-20T15:34:03;29.50;43.00
3705;DHT22;1868;48.918;9.438;2023-07-20T15:36:32;29.30;43.00
3705;DHT22;1868;48.918;9.438;2023-07-20T15:39:01;29.30;44.10
3705;DHT22;1868;48.918;9.438;2023-07-20T15:41:30;29.40;42.10
3705;DHT22;1868;48.918;9.438;2023-07-20T15:44:00;29.30;43.20
3705;DHT22;1868;48.918;9.438;2023-07-20T15:46:49;29.20;43.50
3705;DHT22;1868;48.918;9.438;2023-07-20T15:49:18;29.00;44.30
3705;DHT22;1868;48.918;9.438;2023-07-20T15:51:47;29.10;43.30
3705;DHT22;1868;48.918;9.438;2023-07-20T15:54:16;29.00;43.80
3705;DHT22;1868;48.918;9.438;2023-07-20T15:56:46;28.90;43.20
3705;DHT22;1868;48.918;9.438;2023-07-20T15:59:17;28.80;45.20
3705;DHT22;1868;48.918;9.438;2023-07-20T16:01:46;28.70;43.60
3705;DHT22;1868;48.918;9.438;2023-07-20T16:04:15;28.60;45.80
3705;DHT22;1868;48.918;9.438;2023-07-20T16:06:43;28.40;46.80
3705;DHT22;1868;48.918;9.438;2023-07-20T16:09:13;28.20;47.20
3705;DHT22;1868;48.918;9.438;2023-07-20T16:11:42;27.90;47.90
3705;DHT22;1868;48.918;9.438;2023-07-20T16:14:11;27.90;48.40
3705;DHT22;1868;48.918;9.438;2023-07-20T16:16:43;27.80;48.70
3705;DHT22;1868;48.918;9.438;2023-07-20T16:19:13;27.60;47.90
3705;DHT22;1868;48.918;9.438;2023-07-20T16:21:42;27.60;49.10
3705;DHT22;1868;48.918;9.438;2023-07-20T16:24:12;27.50;49.30
3705;DHT22;1868;48.918;9.438;2023-07-20T16:26:44;27.30;48.80